Time;durP1;ratioP1;P1;durP2;ratioP2;P2;SDS_P1;SDS_P2;PMS_P1;PMS_P2;Temp;Humidity;BMP_temperature;BMP_pressure;BME280_temperature;BME280_humidity;BME280_pressure;Samples;Min_cycle;Max_cycle;Signal;HPM_P1;HPM_P2
2022/04/25 00:01:36;;;;;;;0.90;0.40;;;;;;;;;;5052353;28;20037;-88
2022/04/25 00:04:07;;;;;;;1.10;0.50;;;;;;;;;;5048220;28;20040;-89
2022/04/25 00:06:35;;;;;;;0.47;0.38;;;;;;;;;;5044903;28;20057;-88
2022/04/25 00:09:03;;;;;;;0.93;0.40;;;;;;;;;;5048430;28;20380;-89
2022/04/25 00:11:32;;;;;;;0.75;0.40;;;;;;;;;;5040134;28;20049;-88
2022/04/25 00:14:00;;;;;;;0.35;0.35;;;;;;;;;;5037528;28;20068;-88
2022/04/25 00:16:28;;;;;;;0.68;0.47;;;;;;;;;;5052585;28;20120;-88
2022/04/25 00:18:56;;;;;;;0.38;0.35;;;;;;;;;;5052083;28;20072;-88
2022/04/25 00:21:27;;;;;;;0.47;0.40;;;;;;;;;;5052225;28;20045;-88
2022/04/25 00:23:55;;;;;;;0.43;0.30;;;;;;;;;;5050134;28;20542;-88
2022/04/25 00:26:23;;;;;;;0.30;0.30;;;;;;;;;;5052324;28;20526;-89
2022/04/25 00:28:52;;;;;;;0.40;0.38;;;;;;;;;;5050043;28;20041;-87
2022/04/25 00:31:20;;;;;;;1.02;0.20;;;;;;;;;;5052401;28;20107;-89
2022/04/25 00:33:48;;;;;;;0.22;0.20;;;;;;;;;;5046013;28;20067;-87
2022/04/25 00:36:17;;;;;;;0.20;0.20;;;;;;;;;;5052751;28;20095;-88
2022/04/25 00:38:47;;;;;;;0.38;0.38;;;;;;;;;;5049715;28;20041;-87
2022/04/25 00:41:16;;;;;;;0.40;0.35;;;;;;;;;;5052750;28;20530;-88
2022/04/25 00:43:44;;;;;;;0.47;0.40;;;;;;;;;;5044247;28;20139;-88
2022/04/25 00:46:20;;;;;;;1.15;0.30;;;;;;;;;;5052399;28;20127;-87
2022/04/25 00:48:49;;;;;;;0.40;0.20;;;;;;;;;;5047861;28;20040;-88
2022/04/25 00:51:18;;;;;;;1.02;0.30;;;;;;;;;;5051830;28;20130;-88
2022/04/25 00:53:48;;;;;;;0.30;0.30;;;;;;;;;;5051700;28;20041;-88
2022/04/25 00:56:17;;;;;;;0.20;0.20;;;;;;;;;;5049493;28;20080;-88
2022/04/25 00:58:46;;;;;;;0.47;0.40;;;;;;;;;;5049337;28;20057;-89
2022/04/25 01:01:14;;;;;;;0.45;0.40;;;;;;;;;;5048185;28;20095;-88
2022/04/25 01:03:43;;;;;;;0.20;0.20;;;;;;;;;;5049323;28;20041;-88
2022/04/25 01:06:12;;;;;;;0.30;0.30;;;;;;;;;;5052232;28;20484;-88
2022/04/25 01:08:40;;;;;;;0.30;0.30;;;;;;;;;;5050375;28;20164;-88
2022/04/25 01:11:09;;;;;;;0.30;0.30;;;;;;;;;;5049415;28;20044;-88
2022/04/25 01:13:38;;;;;;;0.40;0.40;;;;;;;;;;5051669;28;20083;-90
2022/04/25 01:16:09;;;;;;;0.63;0.40;;;;;;;;;;5051401;28;20142;-89
2022/04/25 01:18:38;;;;;;;0.40;0.40;;;;;;;;;;5051803;28;20059;-88
2022/04/25 01:21:10;;;;;;;0.22;0.22;;;;;;;;;;5051462;28;20045;-88
2022/04/25 01:29:12;;;;;;;0.57;0.30;;;;;;;;;;5050274;28;20504;-88
2022/04/25 01:31:40;;;;;;;0.30;0.30;;;;;;;;;;5054205;28;20121;-89
2022/04/25 01:34:09;;;;;;;0.30;0.30;;;;;;;;;;5049100;28;20467;-88
2022/04/25 01:36:37;;;;;;;0.40;0.40;;;;;;;;;;5048608;28;20076;-88
2022/04/25 01:39:07;;;;;;;0.80;0.50;;;;;;;;;;5047907;28;20526;-88
2022/04/25 01:41:35;;;;;;;0.30;0.30;;;;;;;;;;5049935;28;20064;-91
2022/04/25 01:44:04;;;;;;;1.08;0.50;;;;;;;;;;5046060;28;20047;-88
2022/04/25 01:46:32;;;;;;;0.40;0.40;;;;;;;;;;5049851;28;20131;-89
2022/04/25 01:49:01;;;;;;;0.95;0.55;;;;;;;;;;5048413;28;20045;-91
2022/04/25 01:51:29;;;;;;;1.52;0.50;;;;;;;;;;5046267;28;20080;-88
2022/04/25 01:53:58;;;;;;;0.95;0.60;;;;;;;;;;5048813;28;20094;-89
2022/04/25 01:56:28;;;;;;;0.50;0.40;;;;;;;;;;5051123;28;20044;-88
2022/04/25 01:58:58;;;;;;;0.73;0.60;;;;;;;;;;5049392;28;20044;-88
2022/04/25 02:01:26;;;;;;;0.45;0.38;;;;;;;;;;5050953;28;20072;-89
2022/04/25 02:03:55;;;;;;;1.95;0.50;;;;;;;;;;5049077;28;20041;-88
2022/04/25 02:06:23;;;;;;;0.73;0.40;;;;;;;;;;5048825;28;20163;-88
2022/04/25 02:08:52;;;;;;;0.60;0.40;;;;;;;;;;5049188;28;20091;-88
2022/04/25 02:11:20;;;;;;;0.80;0.50;;;;;;;;;;5049242;28;20037;-88
2022/04/25 02:13:51;;;;;;;0.43;0.43;;;;;;;;;;5049526;28;20512;-89
2022/04/25 02:16:20;;;;;;;0.35;0.30;;;;;;;;;;5032532;28;20488;-89
2022/04/25 02:18:48;;;;;;;0.50;0.47;;;;;;;;;;5046789;28;20538;-88
2022/04/25 02:21:19;;;;;;;0.60;0.40;;;;;;;;;;5050132;28;20048;-88
2022/04/25 02:23:49;;;;;;;0.40;0.40;;;;;;;;;;5040341;28;20077;-89
2022/04/25 02:26:18;;;;;;;0.60;0.38;;;;;;;;;;5050091;28;20419;-90
2022/04/25 02:28:46;;;;;;;0.40;0.38;;;;;;;;;;5049298;28;20454;-88
2022/04/25 02:31:17;;;;;;;1.05;0.50;;;;;;;;;;5047112;28;20071;-88
2022/04/25 02:33:45;;;;;;;0.90;0.50;;;;;;;;;;5035244;28;20465;-88
2022/04/25 02:36:13;;;;;;;0.57;0.57;;;;;;;;;;5055053;28;20576;-92
2022/04/25 02:38:42;;;;;;;0.55;0.47;;;;;;;;;;5053751;28;20048;-89
2022/04/25 02:41:10;;;;;;;0.90;0.50;;;;;;;;;;5052306;28;20037;-88
2022/04/25 02:43:39;;;;;;;0.57;0.55;;;;;;;;;;5053395;28;20164;-88
2022/04/25 02:46:08;;;;;;;0.90;0.60;;;;;;;;;;5053648;28;20142;-89
2022/04/25 02:48:39;;;;;;;1.15;0.57;;;;;;;;;;5053252;28;20069;-91
2022/04/25 02:51:08;;;;;;;0.80;0.60;;;;;;;;;;5054660;28;20153;-91
2022/04/25 02:53:36;;;;;;;1.23;0.60;;;;;;;;;;5052447;28;20499;-89
2022/04/25 02:56:08;;;;;;;1.17;0.80;;;;;;;;;;5053850;28;20045;-89
2022/04/25 02:58:38;;;;;;;0.85;0.60;;;;;;;;;;5051599;28;20078;-89
2022/04/25 03:01:10;;;;;;;1.23;0.70;;;;;;;;;;5050195;28;20045;-89
2022/04/25 03:03:40;;;;;;;1.08;0.70;;;;;;;;;;5053338;28;20048;-89
2022/04/25 03:06:09;;;;;;;1.10;0.68;;;;;;;;;;5052172;28;20107;-88
2022/04/25 03:08:38;;;;;;;1.50;0.70;;;;;;;;;;5051400;28;20095;-89
2022/04/25 03:11:10;;;;;;;3.05;0.80;;;;;;;;;;5051153;28;20040;-90
2022/04/25 03:13:39;;;;;;;0.77;0.55;;;;;;;;;;5053292;28;21280;-89
2022/04/25 03:16:07;;;;;;;1.50;0.90;;;;;;;;;;5048687;28;20132;-89
2022/04/25 03:18:36;;;;;;;1.45;0.75;;;;;;;;;;5052700;28;20049;-91
2022/04/25 03:21:08;;;;;;;2.25;0.68;;;;;;;;;;5051436;28;20045;-89
2022/04/25 03:23:37;;;;;;;1.48;0.93;;;;;;;;;;5034321;28;20560;-91
2022/04/25 03:26:08;;;;;;;1.88;0.93;;;;;;;;;;5052034;28;20044;-88
2022/04/25 03:28:38;;;;;;;1.50;0.90;;;;;;;;;;5052167;28;20048;-89
2022/04/25 03:31:10;;;;;;;1.92;0.85;;;;;;;;;;5053578;28;20063;-89
2022/04/25 03:33:38;;;;;;;1.65;0.93;;;;;;;;;;5053235;28;20049;-89
2022/04/25 03:36:11;;;;;;;1.08;0.60;;;;;;;;;;5052478;28;20087;-89
2022/04/25 03:38:42;;;;;;;1.45;1.00;;;;;;;;;;5049371;28;20144;-91
2022/04/25 03:41:11;;;;;;;1.02;0.77;;;;;;;;;;5051419;28;20576;-89
2022/04/25 03:43:40;;;;;;;1.17;0.80;;;;;;;;;;5038987;28;20562;-89
2022/04/25 03:46:08;;;;;;;1.25;0.70;;;;;;;;;;5052420;28;20053;-89
2022/04/25 03:48:39;;;;;;;0.95;0.70;;;;;;;;;;5051888;28;20048;-88
2022/04/25 03:51:07;;;;;;;1.33;0.77;;;;;;;;;;5051429;28;20144;-89
2022/04/25 03:53:39;;;;;;;1.27;0.80;;;;;;;;;;5041776;28;20124;-90
2022/04/25 03:58:56;;;;;;;1.15;0.70;;;;;;;;;;5053127;28;20086;-89
2022/04/25 04:01:24;;;;;;;2.15;0.80;;;;;;;;;;5052076;28;20045;-89
2022/04/25 04:03:53;;;;;;;1.45;0.80;;;;;;;;;;5051546;28;20041;-89
2022/04/25 04:06:28;;;;;;;1.83;1.00;;;;;;;;;;5048353;28;20061;-90
2022/04/25 04:08:57;;;;;;;1.10;0.73;;;;;;;;;;5046464;28;21544;-88
2022/04/25 04:11:46;;;;;;;2.90;0.90;;;;;;;;;;5039933;28;20044;-89
2022/04/25 04:14:14;;;;;;;1.42;1.00;;;;;;;;;;5049518;28;20069;-89
2022/04/25 04:16:43;;;;;;;2.10;1.05;;;;;;;;;;5052395;28;20091;-90
2022/04/25 04:19:11;;;;;;;1.25;0.88;;;;;;;;;;5048969;28;20128;-89
2022/04/25 04:21:39;;;;;;;1.55;1.10;;;;;;;;;;5047499;28;20056;-89
2022/04/25 04:24:10;;;;;;;2.35;1.35;;;;;;;;;;5052606;28;20685;-91
2022/04/25 04:26:39;;;;;;;2.28;1.35;;;;;;;;;;5051973;28;20066;-90
2022/04/25 04:29:07;;;;;;;2.97;1.40;;;;;;;;;;5050069;28;20128;-89
2022/04/25 04:31:36;;;;;;;1.75;1.08;;;;;;;;;;5051452;28;20049;-89
2022/04/25 04:37:06;;;;;;;3.03;1.50;;;;;;;;;;5035067;28;20392;-90
2022/04/25 04:39:43;;;;;;;1.88;1.20;;;;;;;;;;5054220;28;20136;-90
2022/04/25 04:42:32;;;;;;;2.33;1.48;;;;;;;;;;5054863;28;20484;-90
2022/04/25 04:45:00;;;;;;;3.45;1.90;;;;;;;;;;5052517;28;20122;-92
2022/04/25 04:47:31;;;;;;;4.68;2.75;;;;;;;;;;5038516;28;20079;-86
2022/04/25 04:50:02;;;;;;;6.18;2.30;;;;;;;;;;5056271;28;20064;-90
2022/04/25 04:52:38;;;;;;;4.35;2.50;;;;;;;;;;5050807;28;20045;-87
2022/04/25 04:55:08;;;;;;;3.55;2.40;;;;;;;;;;5066092;28;20077;-88
2022/04/25 04:57:37;;;;;;;7.90;2.80;;;;;;;;;;5072136;28;20024;-89
2022/04/25 05:00:07;;;;;;;4.18;2.28;;;;;;;;;;5047263;28;20037;-88
2022/04/25 05:02:36;;;;;;;5.70;3.28;;;;;;;;;;5050576;28;20057;-88
2022/04/25 05:05:05;;;;;;;7.20;3.35;;;;;;;;;;5047205;28;20041;-88
2022/04/25 05:07:34;;;;;;;6.32;3.60;;;;;;;;;;5048936;28;20091;-89
2022/04/25 05:10:04;;;;;;;7.00;3.38;;;;;;;;;;5051301;28;20091;-89
2022/04/25 05:12:44;;;;;;;9.18;3.28;;;;;;;;;;5036133;28;20143;-90
2022/04/25 05:15:15;;;;;;;7.55;3.35;;;;;;;;;;5050384;28;20150;-89
2022/04/25 05:17:44;;;;;;;6.55;3.28;;;;;;;;;;5051079;28;20040;-90
2022/04/25 05:23:21;;;;;;;5.82;2.65;;;;;;;;;;5045514;28;20048;-92
2022/04/25 05:25:52;;;;;;;3.72;2.17;;;;;;;;;;5047335;28;20449;-92
2022/04/25 05:28:24;;;;;;;6.35;3.20;;;;;;;;;;5049436;28;20047;-91
2022/04/25 05:33:50;;;;;;;5.78;2.85;;;;;;;;;;5041983;28;20049;-90
2022/04/25 05:36:19;;;;;;;8.60;3.92;;;;;;;;;;5035080;28;20044;-90
2022/04/25 05:38:48;;;;;;;7.68;3.95;;;;;;;;;;5051018;28;20495;-90
2022/04/25 05:41:16;;;;;;;8.68;3.65;;;;;;;;;;5052719;28;20121;-91
2022/04/25 05:43:47;;;;;;;7.82;3.92;;;;;;;;;;5051312;28;20044;-90
2022/04/25 05:46:16;;;;;;;7.22;3.78;;;;;;;;;;5052985;28;20045;-90
2022/04/25 05:54:16;;;;;;;8.05;3.80;;;;;;;;;;5051672;28;20117;-91
2022/04/25 05:56:45;;;;;;;9.65;4.90;;;;;;;;;;5036754;28;20041;-89
2022/04/25 05:59:16;;;;;;;10.27;4.70;;;;;;;;;;5051972;28;20045;-90
2022/04/25 06:01:44;;;;;;;10.65;5.13;;;;;;;;;;5051250;28;20041;-90
2022/04/25 06:04:14;;;;;;;9.85;4.72;;;;;;;;;;5050992;28;20045;-90
2022/04/25 06:06:43;;;;;;;11.65;5.57;;;;;;;;;;5052648;28;20057;-90
2022/04/25 06:09:11;;;;;;;10.52;5.32;;;;;;;;;;5050530;28;20131;-90
2022/04/25 06:11:41;;;;;;;10.85;5.65;;;;;;;;;;5035782;28;20106;-90
2022/04/25 06:14:13;;;;;;;13.85;6.43;;;;;;;;;;5046504;28;20064;-91
2022/04/25 06:16:43;;;;;;;13.80;7.22;;;;;;;;;;5048619;28;20077;-88
2022/04/25 06:19:12;;;;;;;14.15;7.82;;;;;;;;;;5045821;28;20056;-88
2022/04/25 06:21:40;;;;;;;17.15;8.27;;;;;;;;;;5050598;28;20045;-89
2022/04/25 06:24:09;;;;;;;17.80;8.90;;;;;;;;;;5051969;28;20443;-85
2022/04/25 06:26:38;;;;;;;20.67;9.13;;;;;;;;;;5052168;28;20133;-88
2022/04/25 06:29:07;;;;;;;18.55;9.57;;;;;;;;;;5047208;28;20297;-89
2022/04/25 06:31:35;;;;;;;18.52;8.27;;;;;;;;;;5050179;28;20049;-89
2022/04/25 06:34:05;;;;;;;23.42;9.18;;;;;;;;;;5049334;28;20120;-89
2022/04/25 06:36:36;;;;;;;18.60;9.77;;;;;;;;;;5049540;28;20041;-90
2022/04/25 06:39:04;;;;;;;20.50;9.98;;;;;;;;;;5043136;28;20106;-89
2022/04/25 06:41:33;;;;;;;21.35;10.73;;;;;;;;;;5051102;28;20052;-92
2022/04/25 06:44:01;;;;;;;22.35;9.70;;;;;;;;;;5049700;28;20050;-90
2022/04/25 06:46:30;;;;;;;22.13;11.45;;;;;;;;;;5051155;28;20059;-89
2022/04/25 06:51:53;;;;;;;18.95;9.65;;;;;;;;;;5034513;28;20053;-90
2022/04/25 06:54:22;;;;;;;21.95;10.52;;;;;;;;;;5050904;28;20278;-90
2022/04/25 06:56:50;;;;;;;18.58;10.63;;;;;;;;;;5051882;28;20055;-89
2022/04/25 06:59:19;;;;;;;21.65;10.55;;;;;;;;;;5050698;28;20466;-91
2022/04/25 07:01:48;;;;;;;19.65;10.05;;;;;;;;;;5044441;28;20044;-89
2022/04/25 07:04:17;;;;;;;22.40;9.90;;;;;;;;;;5044508;28;20037;-88
2022/04/25 07:06:46;;;;;;;19.33;9.23;;;;;;;;;;5049553;28;20049;-88
2022/04/25 07:09:20;;;;;;;19.60;9.50;;;;;;;;;;5047872;28;20045;-89
2022/04/25 07:11:49;;;;;;;18.58;9.52;;;;;;;;;;5048793;28;20049;-89
2022/04/25 07:14:18;;;;;;;17.00;9.20;;;;;;;;;;5049622;28;20057;-89
2022/04/25 07:16:48;;;;;;;17.02;9.20;;;;;;;;;;5050514;28;20484;-89
2022/04/25 07:19:22;;;;;;;20.45;10.00;;;;;;;;;;5049862;28;20736;-88
2022/04/25 07:30:14;;;;;;;19.67;9.20;;;;;;;;;;5036773;28;20044;-91
2022/04/25 07:32:43;;;;;;;17.27;9.70;;;;;;;;;;5055423;28;20084;-93
2022/04/25 07:35:12;;;;;;;20.55;9.52;;;;;;;;;;5051808;28;20480;-88
2022/04/25 07:37:41;;;;;;;18.75;8.82;;;;;;;;;;5049836;28;20037;-89
2022/04/25 07:40:11;;;;;;;16.13;8.77;;;;;;;;;;5053310;28;20041;-89
2022/04/25 07:42:41;;;;;;;17.13;8.98;;;;;;;;;;5048884;28;20071;-89
2022/04/25 07:45:10;;;;;;;16.52;9.32;;;;;;;;;;5058420;28;20037;-88
2022/04/25 07:47:43;;;;;;;14.57;8.35;;;;;;;;;;5046982;28;20319;-88
2022/04/25 07:50:12;;;;;;;19.20;9.57;;;;;;;;;;5056842;28;20048;-89
2022/04/25 07:52:40;;;;;;;16.08;8.82;;;;;;;;;;5050446;28;20044;-88
2022/04/25 07:55:11;;;;;;;16.38;8.52;;;;;;;;;;5050573;28;20037;-88
2022/04/25 07:57:39;;;;;;;16.95;9.23;;;;;;;;;;5050467;28;20057;-88
2022/04/25 08:00:09;;;;;;;15.98;8.38;;;;;;;;;;5053006;28;20041;-88
2022/04/25 08:02:37;;;;;;;14.98;8.35;;;;;;;;;;5051465;28;20479;-88
2022/04/25 08:05:06;;;;;;;18.98;9.27;;;;;;;;;;5047288;28;20171;-88
2022/04/25 08:07:36;;;;;;;20.80;9.80;;;;;;;;;;5047309;28;20092;-89
2022/04/25 08:10:05;;;;;;;16.10;8.45;;;;;;;;;;5048981;28;20125;-89
2022/04/25 08:18:11;;;;;;;17.35;8.73;;;;;;;;;;5044315;28;20045;-89
2022/04/25 08:20:42;;;;;;;16.75;8.80;;;;;;;;;;5049535;28;20081;-89
2022/04/25 08:23:13;;;;;;;18.60;9.65;;;;;;;;;;5050220;28;20045;-88
2022/04/25 08:25:43;;;;;;;17.45;9.00;;;;;;;;;;5052562;28;20047;-89
2022/04/25 08:28:14;;;;;;;18.23;9.23;;;;;;;;;;5050453;28;20047;-91
2022/04/25 08:30:43;;;;;;;17.88;9.10;;;;;;;;;;5047933;28;20562;-89
2022/04/25 08:33:12;;;;;;;15.98;8.75;;;;;;;;;;5049730;28;20045;-89
2022/04/25 08:35:41;;;;;;;16.60;9.13;;;;;;;;;;5051039;28;20041;-89
2022/04/25 08:38:09;;;;;;;23.27;9.80;;;;;;;;;;5049277;28;20084;-88
2022/04/25 08:40:39;;;;;;;17.77;9.20;;;;;;;;;;5047386;28;20476;-93
2022/04/25 08:43:09;;;;;;;17.20;9.25;;;;;;;;;;5052742;28;20146;-85
2022/04/25 08:45:42;;;;;;;19.20;9.48;;;;;;;;;;5051715;28;20041;-85
2022/04/25 08:48:12;;;;;;;17.75;9.32;;;;;;;;;;5035346;28;20066;-85
2022/04/25 08:50:42;;;;;;;19.52;9.70;;;;;;;;;;5049733;28;20093;-85
2022/04/25 08:53:12;;;;;;;17.58;9.32;;;;;;;;;;5051608;28;20044;-84
2022/04/25 08:55:41;;;;;;;18.60;9.10;;;;;;;;;;5039638;28;20472;-85
2022/04/25 08:58:11;;;;;;;15.48;9.73;;;;;;;;;;5051464;28;20362;-85
2022/04/25 09:00:41;;;;;;;16.73;8.80;;;;;;;;;;5050826;28;20044;-85
2022/04/25 09:03:17;;;;;;;14.80;7.90;;;;;;;;;;5051036;28;21268;-85
2022/04/25 09:05:46;;;;;;;14.38;8.18;;;;;;;;;;5052377;28;20110;-85
2022/04/25 09:08:15;;;;;;;18.35;8.30;;;;;;;;;;5043524;28;20045;-85
2022/04/25 09:10:45;;;;;;;16.38;8.80;;;;;;;;;;5050325;28;20053;-85
2022/04/25 09:13:14;;;;;;;17.88;8.52;;;;;;;;;;5049446;28;20076;-85
2022/04/25 09:15:44;;;;;;;17.45;9.38;;;;;;;;;;5051576;28;20052;-85
2022/04/25 09:18:13;;;;;;;19.27;10.10;;;;;;;;;;5051445;28;20045;-85
2022/04/25 09:20:44;;;;;;;17.48;9.93;;;;;;;;;;5051396;28;20101;-85
2022/04/25 09:23:21;;;;;;;20.33;10.98;;;;;;;;;;5049138;28;20124;-85
2022/04/25 09:26:07;;;;;;;20.05;10.38;;;;;;;;;;5041422;28;20045;-85
2022/04/25 09:28:46;;;;;;;19.33;10.52;;;;;;;;;;5048976;28;20473;-85
2022/04/25 09:31:16;;;;;;;21.77;10.93;;;;;;;;;;5048478;28;20044;-85
2022/04/25 09:33:48;;;;;;;19.85;10.18;;;;;;;;;;5051306;28;20049;-85
2022/04/25 09:36:17;;;;;;;20.05;10.13;;;;;;;;;;5050092;28;20057;-85
2022/04/25 09:38:47;;;;;;;19.40;11.00;;;;;;;;;;5050088;28;20060;-85
2022/04/25 09:41:17;;;;;;;18.85;9.70;;;;;;;;;;5046211;28;20059;-88
2022/04/25 09:43:47;;;;;;;18.88;9.25;;;;;;;;;;5040238;28;20111;-88
2022/04/25 09:46:18;;;;;;;18.00;10.02;;;;;;;;;;5049590;28;20118;-89
2022/04/25 09:49:02;;;;;;;16.55;8.98;;;;;;;;;;5049577;28;20091;-88
2022/04/25 09:51:31;;;;;;;16.63;8.98;;;;;;;;;;5046533;28;20071;-89
2022/04/25 09:54:01;;;;;;;17.75;9.68;;;;;;;;;;5050660;28;20036;-89
2022/04/25 09:56:31;;;;;;;18.33;8.95;;;;;;;;;;5045419;28;20049;-88
2022/04/25 09:59:01;;;;;;;17.70;9.45;;;;;;;;;;5040252;28;20055;-88
2022/04/25 10:01:33;;;;;;;18.92;10.10;;;;;;;;;;5043546;28;20052;-89
2022/04/25 10:04:02;;;;;;;19.38;10.23;;;;;;;;;;5042518;28;20033;-90
2022/04/25 10:06:33;;;;;;;15.98;8.80;;;;;;;;;;5049904;28;20053;-89
2022/04/25 10:09:03;;;;;;;18.35;9.13;;;;;;;;;;5052203;28;20037;-92
2022/04/25 10:11:34;;;;;;;17.30;9.57;;;;;;;;;;5052388;28;20499;-92
2022/04/25 10:14:03;;;;;;;16.83;9.23;;;;;;;;;;5047742;28;20484;-88
2022/04/25 10:16:34;;;;;;;17.40;9.07;;;;;;;;;;5033420;28;20405;-87
2022/04/25 10:19:03;;;;;;;17.08;9.30;;;;;;;;;;5042471;28;20112;-89
2022/04/25 10:21:32;;;;;;;15.52;8.75;;;;;;;;;;5051773;28;20124;-89
2022/04/25 10:24:02;;;;;;;15.57;8.40;;;;;;;;;;5051057;28;20033;-89
2022/04/25 10:26:31;;;;;;;15.63;8.73;;;;;;;;;;5050085;28;20045;-89
2022/04/25 10:29:02;;;;;;;13.73;8.43;;;;;;;;;;5050934;28;20045;-89
2022/04/25 10:31:36;;;;;;;12.88;7.20;;;;;;;;;;5051097;28;20341;-89
2022/04/25 10:34:06;;;;;;;16.13;9.13;;;;;;;;;;5041104;28;20125;-89
2022/04/25 10:36:53;;;;;;;12.13;7.30;;;;;;;;;;5047978;28;20045;-89
2022/04/25 10:39:24;;;;;;;16.33;8.60;;;;;;;;;;5050450;28;20048;-89
2022/04/25 10:45:03;;;;;;;14.18;8.63;;;;;;;;;;5050832;28;20540;-89
2022/04/25 10:47:32;;;;;;;13.30;7.80;;;;;;;;;;5049167;28;20091;-90
2022/04/25 10:50:10;;;;;;;12.35;7.40;;;;;;;;;;5033303;28;20056;-88
2022/04/25 10:52:55;;;;;;;16.88;7.78;;;;;;;;;;5033038;28;20131;-86
2022/04/25 10:55:29;;;;;;;14.85;7.82;;;;;;;;;;5051496;28;20069;-85
2022/04/25 10:58:17;;;;;;;13.75;7.68;;;;;;;;;;5044146;28;20037;-87
2022/04/25 11:00:55;;;;;;;17.05;8.13;;;;;;;;;;5056066;28;20045;-89
2022/04/25 11:03:31;;;;;;;12.70;7.35;;;;;;;;;;5054661;28;20044;-88
2022/04/25 11:06:02;;;;;;;13.63;7.03;;;;;;;;;;5047897;28;20049;-87
2022/04/25 11:08:39;;;;;;;14.80;8.20;;;;;;;;;;5046948;28;20045;-88
2022/04/25 11:11:09;;;;;;;12.63;7.35;;;;;;;;;;5052860;28;20049;-88
2022/04/25 11:14:05;;;;;;;12.85;7.78;;;;;;;;;;5037818;28;20085;-89
2022/04/25 11:16:33;;;;;;;;;;;;;;;;;;5050570;28;20683;-87
2022/04/25 11:19:09;;;;;;;13.35;7.13;;;;;;;;;;5053091;28;19921;-88
2022/04/25 11:21:45;;;;;;;11.23;6.45;;;;;;;;;;5056769;28;20060;-88
2022/04/25 11:24:32;;;;;;;12.50;6.05;;;;;;;;;;5036010;28;20128;-87
2022/04/25 11:27:01;;;;;;;12.18;6.50;;;;;;;;;;5037922;28;20056;-87
2022/04/25 11:29:29;;;;;;;11.07;7.05;;;;;;;;;;5053934;28;20435;-87
2022/04/25 11:32:18;;;;;;;12.75;7.78;;;;;;;;;;5055423;28;20053;-87
2022/04/25 11:34:47;;;;;;;9.60;6.20;;;;;;;;;;5036209;28;20049;-88
2022/04/25 11:37:18;;;;;;;13.75;8.63;;;;;;;;;;5053744;28;20155;-87
2022/04/25 11:39:57;;;;;;;11.82;7.13;;;;;;;;;;5053956;28;20052;-87
2022/04/25 11:42:27;;;;;;;10.75;7.45;;;;;;;;;;5041583;28;20036;-87
2022/04/25 11:44:56;;;;;;;11.98;6.72;;;;;;;;;;5051146;28;20037;-87
2022/04/25 11:47:25;;;;;;;11.20;6.43;;;;;;;;;;5054114;28;20033;-88
2022/04/25 11:49:57;;;;;;;13.93;8.73;;;;;;;;;;4999454;28;20065;-87
2022/04/25 11:52:27;;;;;;;14.27;7.47;;;;;;;;;;4989129;28;20647;-87
2022/04/25 11:54:56;;;;;;;9.95;6.75;;;;;;;;;;4986751;28;20066;-91
2022/04/25 11:57:25;;;;;;;16.00;7.97;;;;;;;;;;4991829;28;20154;-88
2022/04/25 12:00:09;;;;;;;10.60;6.78;;;;;;;;;;4988956;28;20096;-87
2022/04/25 12:02:38;;;;;;;10.05;6.18;;;;;;;;;;4989722;28;20046;-88
2022/04/25 12:05:08;;;;;;;12.18;7.10;;;;;;;;;;4991126;28;20053;-86
2022/04/25 12:07:38;;;;;;;11.02;6.97;;;;;;;;;;4990654;28;20089;-87
2022/04/25 12:15:43;;;;;;;9.63;5.72;;;;;;;;;;5046022;28;20473;-85
2022/04/25 12:18:13;;;;;;;10.88;6.72;;;;;;;;;;5047170;28;20056;-85
2022/04/25 12:20:43;;;;;;;8.93;5.75;;;;;;;;;;5049024;28;20477;-87
2022/04/25 12:23:23;;;;;;;8.20;5.70;;;;;;;;;;5049876;28;20128;-87
2022/04/25 12:25:52;;;;;;;8.27;5.95;;;;;;;;;;5045430;28;20128;-86
2022/04/25 12:28:22;;;;;;;16.15;7.55;;;;;;;;;;5050242;28;20055;-87
2022/04/25 12:30:52;;;;;;;8.27;5.60;;;;;;;;;;5046300;28;20046;-86
2022/04/25 12:33:22;;;;;;;11.15;5.97;;;;;;;;;;5048119;28;20037;-85
2022/04/25 12:35:52;;;;;;;9.90;6.40;;;;;;;;;;5048489;28;20041;-86
2022/04/25 12:38:42;;;;;;;10.70;6.25;;;;;;;;;;5045195;28;20048;-86
2022/04/25 12:41:12;;;;;;;9.93;6.25;;;;;;;;;;5043551;28;20369;-86
2022/04/25 12:43:43;;;;;;;10.80;7.10;;;;;;;;;;5045205;28;20057;-86
2022/04/25 12:46:13;;;;;;;9.57;6.40;;;;;;;;;;5044945;28;20107;-86
2022/04/25 12:49:00;;;;;;;10.35;6.18;;;;;;;;;;5045821;28;20047;-85
2022/04/25 12:51:34;;;;;;;10.00;6.20;;;;;;;;;;5049433;28;20465;-86
2022/04/25 12:54:04;;;;;;;9.57;6.28;;;;;;;;;;5049803;28;20041;-89
2022/04/25 12:56:34;;;;;;;9.63;6.13;;;;;;;;;;5040943;28;20518;-88
2022/04/25 12:59:04;;;;;;;9.63;5.43;;;;;;;;;;5045589;28;20037;-86
2022/04/25 13:01:34;;;;;;;10.93;6.88;;;;;;;;;;5050614;28;20095;-86
2022/04/25 13:04:19;;;;;;;10.00;6.32;;;;;;;;;;5041107;28;20041;-87
2022/04/25 13:06:47;;;;;;;8.85;5.75;;;;;;;;;;5049063;28;20048;-86
2022/04/25 13:09:17;;;;;;;10.00;6.07;;;;;;;;;;5046717;28;20045;-86
2022/04/25 13:11:54;;;;;;;8.85;6.07;;;;;;;;;;5048008;28;20045;-86
2022/04/25 13:14:22;;;;;;;10.55;6.82;;;;;;;;;;5044701;28;20132;-86
2022/04/25 13:16:51;;;;;;;9.02;5.32;;;;;;;;;;5044419;28;20045;-86
2022/04/25 13:19:20;;;;;;;7.95;5.68;;;;;;;;;;5044102;28;20049;-86
2022/04/25 13:21:48;;;;;;;10.82;6.13;;;;;;;;;;5044773;28;20052;-86
2022/04/25 13:24:18;;;;;;;10.07;6.68;;;;;;;;;;5045467;28;20403;-85
2022/04/25 13:26:47;;;;;;;8.25;5.28;;;;;;;;;;5050692;28;20056;-86
2022/04/25 13:29:16;;;;;;;9.90;6.85;;;;;;;;;;5044644;28;20041;-89
2022/04/25 13:31:45;;;;;;;10.77;6.53;;;;;;;;;;5047771;28;20063;-86
2022/04/25 13:34:13;;;;;;;9.05;6.43;;;;;;;;;;5043160;28;20384;-85
2022/04/25 13:36:42;;;;;;;9.93;6.75;;;;;;;;;;5045371;28;20076;-86
2022/04/25 13:39:11;;;;;;;9.77;5.97;;;;;;;;;;5049040;28;20074;-86
2022/04/25 13:41:41;;;;;;;7.97;5.78;;;;;;;;;;5045806;28;20102;-87
2022/04/25 13:44:10;;;;;;;10.63;6.57;;;;;;;;;;5044617;28;20159;-91
2022/04/25 13:46:39;;;;;;;10.55;6.95;;;;;;;;;;5047569;28;20163;-86
2022/04/25 13:49:10;;;;;;;6.85;4.80;;;;;;;;;;5045881;28;20059;-85
2022/04/25 13:51:39;;;;;;;8.05;5.60;;;;;;;;;;5047158;28;20511;-86
2022/04/25 13:54:07;;;;;;;7.75;5.28;;;;;;;;;;5043782;28;20298;-88
2022/04/25 13:56:36;;;;;;;11.20;7.15;;;;;;;;;;5042232;28;20372;-87
2022/04/25 13:59:06;;;;;;;9.50;5.57;;;;;;;;;;5044257;28;20362;-87
2022/04/25 14:01:35;;;;;;;9.02;5.93;;;;;;;;;;5039890;28;20120;-86
2022/04/25 14:04:04;;;;;;;8.95;5.95;;;;;;;;;;5043085;28;20096;-86
2022/04/25 14:06:32;;;;;;;9.80;5.88;;;;;;;;;;5049233;28;20049;-85
2022/04/25 14:09:02;;;;;;;9.68;6.32;;;;;;;;;;5039040;28;20044;-90
2022/04/25 14:11:31;;;;;;;8.73;5.57;;;;;;;;;;5042155;28;20502;-86
2022/04/25 14:14:00;;;;;;;7.90;4.90;;;;;;;;;;5046974;28;20037;-87
2022/04/25 14:16:30;;;;;;;12.45;7.05;;;;;;;;;;5048009;28;20585;-87
2022/04/25 14:18:59;;;;;;;10.70;6.07;;;;;;;;;;5039881;28;20037;-87
2022/04/25 14:21:28;;;;;;;7.88;5.40;;;;;;;;;;5041503;28;20187;-90
2022/04/25 14:23:56;;;;;;;12.00;6.47;;;;;;;;;;5046018;28;20055;-86
2022/04/25 14:26:25;;;;;;;7.80;5.22;;;;;;;;;;5048319;28;20377;-86
2022/04/25 14:28:54;;;;;;;6.68;4.93;;;;;;;;;;5050326;28;20459;-86
2022/04/25 14:31:39;;;;;;;10.70;4.97;;;;;;;;;;5044537;28;20063;-87
2022/04/25 14:34:13;;;;;;;8.18;5.40;;;;;;;;;;5051632;28;20302;-87
2022/04/25 14:36:42;;;;;;;7.38;4.63;;;;;;;;;;5049545;28;20175;-86
2022/04/25 14:39:10;;;;;;;7.85;5.30;;;;;;;;;;5051215;28;20127;-86
2022/04/25 14:41:39;;;;;;;8.68;5.80;;;;;;;;;;5048171;28;20123;-87
2022/04/25 14:44:08;;;;;;;8.80;6.18;;;;;;;;;;5050902;28;20040;-87
2022/04/25 14:46:37;;;;;;;6.80;4.65;;;;;;;;;;5051322;28;20045;-88
2022/04/25 14:49:08;;;;;;;6.55;4.25;;;;;;;;;;5031753;28;20377;-87
2022/04/25 14:54:25;;;;;;;8.77;4.95;;;;;;;;;;5046587;28;20528;-87
2022/04/25 14:56:54;;;;;;;8.40;5.85;;;;;;;;;;5051966;28;20154;-89
2022/04/25 14:59:22;;;;;;;7.95;5.05;;;;;;;;;;5045697;28;20542;-86
2022/04/25 15:01:51;;;;;;;8.30;4.78;;;;;;;;;;5050802;28;20063;-86
2022/04/25 15:04:22;;;;;;;7.55;4.97;;;;;;;;;;5046907;28;20449;-85
2022/04/25 15:06:51;;;;;;;7.47;4.70;;;;;;;;;;5054049;28;20140;-86
2022/04/25 15:09:19;;;;;;;11.65;5.40;;;;;;;;;;5049073;28;20174;-85
2022/04/25 15:11:48;;;;;;;9.30;4.82;;;;;;;;;;5053766;28;20056;-80
2022/04/25 15:14:16;;;;;;;7.03;5.03;;;;;;;;;;5047644;28;20044;-82
2022/04/25 15:16:46;;;;;;;7.05;4.60;;;;;;;;;;5037260;28;20088;-80
2022/04/25 15:19:15;;;;;;;7.75;4.82;;;;;;;;;;5047308;28;20044;-80
2022/04/25 15:21:45;;;;;;;7.10;4.45;;;;;;;;;;5041485;28;20033;-82
2022/04/25 15:24:13;;;;;;;8.20;4.97;;;;;;;;;;5048948;28;20048;-81
2022/04/25 15:26:42;;;;;;;9.32;5.47;;;;;;;;;;5050980;28;20048;-83
2022/04/25 15:29:10;;;;;;;8.45;5.70;;;;;;;;;;5044617;28;20048;-80
2022/04/25 15:31:39;;;;;;;6.60;4.82;;;;;;;;;;5049498;28;20087;-82
2022/04/25 15:34:08;;;;;;;8.05;4.43;;;;;;;;;;5045681;28;20038;-81
2022/04/25 15:36:37;;;;;;;8.20;4.10;;;;;;;;;;5049102;28;20094;-82
2022/04/25 15:39:07;;;;;;;7.47;4.85;;;;;;;;;;5048109;28;20091;-80
2022/04/25 15:41:35;;;;;;;5.90;4.20;;;;;;;;;;5050343;28;20051;-81
2022/04/25 15:44:04;;;;;;;6.72;4.82;;;;;;;;;;5046755;28;20553;-80
2022/04/25 15:46:32;;;;;;;7.10;4.05;;;;;;;;;;5053526;28;20045;-80